Time;durP1;ratioP1;P1;durP2;ratioP2;P2;SDS_P1;SDS_P2;PMS_P1;PMS_P2;Temp;Humidity;BMP_temperature;BMP_pressure;BME280_temperature;BME280_humidity;BME280_pressure;Samples;Min_cycle;Max_cycle;Signal;HPM_P1;HPM_P2
2023/10/29 00:00:17;;;;;;;2.67;1.10;;;14.70;99.90;;;;;;4966022;28;20618;-70
2023/10/29 00:02:44;;;;;;;1.30;0.93;;;14.70;99.90;;;;;;4965304;28;20027;-70
2023/10/29 00:05:09;;;;;;;3.88;1.10;;;14.80;99.90;;;;;;4965700;28;20054;-70
2023/10/29 00:07:35;;;;;;;5.40;1.30;;;14.70;99.90;;;;;;4964981;28;20055;-70
2023/10/29 00:10:01;;;;;;;3.42;0.93;;;14.70;99.90;;;;;;4963023;28;20031;-70
2023/10/29 00:12:26;;;;;;;2.85;1.05;;;14.70;99.90;;;;;;4963114;28;20053;-70
2023/10/29 00:14:52;;;;;;;4.90;1.00;;;14.80;99.90;;;;;;4964064;28;20113;-70
2023/10/29 00:17:18;;;;;;;1.90;1.00;;;14.90;99.90;;;;;;4963127;28;20496;-71
2023/10/29 00:19:43;;;;;;;3.30;1.20;;;14.90;99.90;;;;;;4964717;28;20539;-70
2023/10/29 00:22:09;;;;;;;2.20;0.70;;;14.90;99.90;;;;;;4962455;28;20085;-70
2023/10/29 00:24:35;;;;;;;8.98;0.88;;;14.90;99.90;;;;;;4964626;28;20105;-70
2023/10/29 00:27:00;;;;;;;2.28;1.10;;;14.90;99.90;;;;;;4961724;28;20473;-70
2023/10/29 00:29:26;;;;;;;2.33;1.02;;;14.90;99.90;;;;;;4966206;28;20368;-70
2023/10/29 00:31:51;;;;;;;5.13;1.15;;;14.90;99.90;;;;;;4967639;28;20476;-70
2023/10/29 00:34:17;;;;;;;2.25;0.73;;;14.90;99.90;;;;;;4967406;28;20582;-69
2023/10/29 00:36:43;;;;;;;2.05;1.00;;;14.90;99.90;;;;;;4967798;28;20472;-73
2023/10/29 00:39:09;;;;;;;1.40;1.00;;;14.90;99.90;;;;;;4967115;28;20030;-70
2023/10/29 00:41:35;;;;;;;2.95;1.00;;;14.90;99.90;;;;;;4983983;28;20030;-70
2023/10/29 00:44:00;;;;;;;3.10;1.30;;;15.00;99.90;;;;;;4968059;28;20030;-70
2023/10/29 00:46:26;;;;;;;2.90;0.90;;;15.00;99.90;;;;;;4965908;28;20653;-71
2023/10/29 00:48:52;;;;;;;2.47;0.88;;;15.00;99.90;;;;;;4968066;28;20037;-71
2023/10/29 00:51:18;;;;;;;3.00;0.80;;;15.00;99.90;;;;;;4966377;28;20049;-72
2023/10/29 00:53:45;;;;;;;2.08;0.70;;;15.00;99.90;;;;;;4968850;28;20031;-72
2023/10/29 00:56:12;;;;;;;3.90;1.10;;;15.00;99.90;;;;;;4968887;28;20027;-74
2023/10/29 00:58:39;;;;;;;3.90;1.23;;;14.90;99.90;;;;;;4968044;28;20121;-73
2023/10/29 01:01:04;;;;;;;2.15;0.90;;;15.00;99.90;;;;;;4966325;28;20397;-72
2023/10/29 01:03:30;;;;;;;2.67;0.95;;;15.00;99.90;;;;;;4967607;28;20069;-72
2023/10/29 01:05:56;;;;;;;1.98;0.93;;;15.00;99.90;;;;;;4965929;28;20023;-72
2023/10/29 01:08:24;;;;;;;2.97;1.25;;;15.10;99.90;;;;;;4968368;28;20023;-72
2023/10/29 01:10:51;;;;;;;4.38;1.10;;;15.10;99.90;;;;;;4968519;28;20033;-72
2023/10/29 01:13:18;;;;;;;5.82;1.23;;;15.00;99.90;;;;;;4964090;28;20098;-72
2023/10/29 01:15:43;;;;;;;4.60;0.95;;;15.00;99.90;;;;;;4968328;28;20391;-72
2023/10/29 01:18:09;;;;;;;2.78;1.15;;;15.00;99.90;;;;;;4968568;28;20084;-71
2023/10/29 01:20:35;;;;;;;2.60;0.90;;;14.90;99.90;;;;;;4965252;28;20396;-72
2023/10/29 01:23:02;;;;;;;3.15;0.90;;;14.90;99.90;;;;;;4968937;28;20035;-72
2023/10/29 01:25:27;;;;;;;3.63;1.27;;;15.00;99.90;;;;;;4966802;28;20041;-71
2023/10/29 01:27:54;;;;;;;1.98;1.10;;;14.90;99.90;;;;;;4968786;28;20027;-71
2023/10/29 01:30:20;;;;;;;4.15;1.00;;;14.90;99.90;;;;;;4968901;28;20161;-71
2023/10/29 01:32:46;;;;;;;2.60;1.38;;;14.80;99.90;;;;;;4966624;28;20081;-71
2023/10/29 01:35:11;;;;;;;6.07;1.30;;;14.90;99.90;;;;;;4967052;28;20018;-71
2023/10/29 01:37:37;;;;;;;3.00;1.00;;;14.80;99.90;;;;;;4965266;28;20617;-72
2023/10/29 01:40:04;;;;;;;1.40;1.15;;;14.80;99.90;;;;;;4965572;28;20553;-71
2023/10/29 01:42:30;;;;;;;3.53;1.13;;;14.80;99.90;;;;;;4966247;28;20030;-72
2023/10/29 01:44:55;;;;;;;4.40;1.30;;;14.70;99.90;;;;;;4966609;28;20073;-71
2023/10/29 01:47:21;;;;;;;2.75;1.10;;;14.80;99.90;;;;;;4965285;28;20042;-73
2023/10/29 01:49:47;;;;;;;5.57;1.33;;;14.70;99.90;;;;;;4965921;28;20022;-72
2023/10/29 01:52:13;;;;;;;3.33;1.02;;;14.70;99.90;;;;;;4964019;28;20179;-71
2023/10/29 01:54:39;;;;;;;3.13;1.13;;;14.70;99.90;;;;;;4967526;28;20500;-71
2023/10/29 01:57:05;;;;;;;2.92;0.90;;;14.80;99.90;;;;;;4967928;28;20065;-71
2023/10/29 01:59:31;;;;;;;2.35;1.20;;;14.70;99.90;;;;;;4963780;28;20039;-71
2023/10/29 02:01:57;;;;;;;2.88;1.13;;;14.70;99.90;;;;;;4967564;28;20034;-72
2023/10/29 02:04:26;;;;;;;5.43;1.00;;;14.70;99.90;;;;;;4962956;28;20620;-74
2023/10/29 02:06:53;;;;;;;2.47;0.65;;;14.60;99.90;;;;;;4966297;28;20034;-71
2023/10/29 02:09:20;;;;;;;3.25;1.10;;;14.60;99.90;;;;;;4963924;28;20025;-71
2023/10/29 02:11:45;;;;;;;1.42;0.80;;;14.60;99.90;;;;;;4966882;28;20046;-71
2023/10/29 02:14:11;;;;;;;2.58;1.00;;;14.60;99.90;;;;;;4965111;28;20027;-72
2023/10/29 02:16:37;;;;;;;4.15;0.93;;;14.60;99.90;;;;;;4966554;28;20038;-72
2023/10/29 02:19:03;;;;;;;4.07;0.98;;;14.60;99.90;;;;;;4964731;28;20023;-70
2023/10/29 02:21:29;;;;;;;2.10;0.95;;;14.50;99.90;;;;;;4967064;28;20441;-70
2023/10/29 02:23:55;;;;;;;2.63;1.10;;;14.60;99.90;;;;;;4964744;28;20068;-71
2023/10/29 02:26:21;;;;;;;1.38;0.77;;;14.60;99.90;;;;;;4966732;28;20122;-71
2023/10/29 02:28:47;;;;;;;2.97;1.13;;;14.60;99.90;;;;;;4967225;28;20039;-70
2023/10/29 02:31:20;;;;;;;1.45;0.70;;;14.60;99.90;;;;;;4966678;28;20077;-69
2023/10/29 02:33:46;;;;;;;4.47;0.85;;;14.70;99.90;;;;;;4966434;28;20034;-69
2023/10/29 02:36:12;;;;;;;4.85;0.95;;;14.70;99.90;;;;;;4967438;28;20090;-72
2023/10/29 02:38:38;;;;;;;4.13;0.88;;;14.80;99.90;;;;;;4966479;28;20035;-70
2023/10/29 02:41:07;;;;;;;2.55;0.90;;;14.70;99.90;;;;;;4966508;28;20114;-71
2023/10/29 02:43:33;;;;;;;3.70;1.00;;;14.80;99.90;;;;;;4963601;28;20092;-70
2023/10/29 02:46:00;;;;;;;4.55;0.95;;;14.80;99.90;;;;;;4966499;28;20396;-70
2023/10/29 02:48:26;;;;;;;1.02;0.73;;;14.90;99.90;;;;;;4964808;28;20031;-70
2023/10/29 02:50:52;;;;;;;2.60;0.60;;;14.90;99.90;;;;;;4967014;28;20022;-71
2023/10/29 02:53:18;;;;;;;2.97;0.70;;;14.90;99.90;;;;;;4963878;28;20482;-70
2023/10/29 02:55:44;;;;;;;1.77;0.75;;;14.90;99.90;;;;;;4965455;28;20038;-71
2023/10/29 02:58:09;;;;;;;1.20;0.63;;;15.00;99.90;;;;;;4966405;28;20030;-70
2023/10/29 03:00:35;;;;;;;1.90;0.60;;;14.90;99.90;;;;;;4963805;28;20486;-71
2023/10/29 03:03:01;;;;;;;2.70;0.75;;;14.90;99.90;;;;;;4963998;28;20073;-70
2023/10/29 03:05:27;;;;;;;1.83;0.60;;;14.90;99.90;;;;;;4964543;28;22209;-70
2023/10/29 03:07:53;;;;;;;4.13;0.80;;;14.90;99.90;;;;;;4966566;28;20078;-70
2023/10/29 03:10:19;;;;;;;2.42;0.80;;;14.90;99.90;;;;;;4966484;28;20548;-70
2023/10/29 03:12:45;;;;;;;1.92;0.68;;;15.10;99.90;;;;;;4966288;28;20023;-70
2023/10/29 03:15:12;;;;;;;1.73;0.70;;;15.10;99.90;;;;;;4964400;28;20031;-70
2023/10/29 03:17:38;;;;;;;1.25;0.63;;;15.10;99.90;;;;;;4965342;28;20026;-71
2023/10/29 03:20:08;;;;;;;1.42;0.63;;;15.10;99.90;;;;;;4971944;28;20081;-70
2023/10/29 03:22:33;;;;;;;2.58;0.60;;;15.10;99.90;;;;;;4986495;28;20043;-70
2023/10/29 03:24:59;;;;;;;3.85;0.73;;;15.10;99.90;;;;;;4987823;28;20034;-70
2023/10/29 03:27:25;;;;;;;0.82;0.60;;;15.10;99.90;;;;;;4953139;28;20034;-70
2023/10/29 03:29:51;;;;;;;3.10;0.73;;;15.10;99.90;;;;;;4968031;28;20357;-70
2023/10/29 03:32:19;;;;;;;1.10;0.82;;;15.10;99.90;;;;;;4972415;28;20027;-70
2023/10/29 03:34:49;;;;;;;0.90;0.80;;;15.00;99.90;;;;;;4971062;28;20035;-69
2023/10/29 03:37:15;;;;;;;1.77;0.60;;;15.00;99.90;;;;;;4970832;28;20034;-71
2023/10/29 03:39:41;;;;;;;1.42;0.77;;;15.00;99.90;;;;;;4972092;28;20518;-69
2023/10/29 03:42:07;;;;;;;1.33;0.73;;;15.00;99.90;;;;;;4970736;28;20035;-70
2023/10/29 03:44:33;;;;;;;2.70;0.68;;;15.00;99.90;;;;;;4969852;28;20019;-70
2023/10/29 03:46:58;;;;;;;1.60;0.80;;;15.00;99.90;;;;;;4970941;28;20039;-69
2023/10/29 03:49:24;;;;;;;2.63;0.73;;;14.90;99.90;;;;;;4967931;28;20077;-70
2023/10/29 03:51:50;;;;;;;3.85;0.70;;;15.00;99.90;;;;;;4970754;28;20035;-71
2023/10/29 03:54:15;;;;;;;1.08;0.60;;;14.90;99.90;;;;;;4972001;28;20031;-70
2023/10/29 03:56:41;;;;;;;1.02;0.55;;;14.90;99.90;;;;;;4968859;28;20027;-70
2023/10/29 03:59:07;;;;;;;2.65;0.82;;;14.90;99.90;;;;;;4971667;28;20023;-70
2023/10/29 04:01:32;;;;;;;2.40;0.60;;;15.00;99.90;;;;;;4969727;28;20070;-69
2023/10/29 04:03:58;;;;;;;1.25;0.70;;;15.00;99.90;;;;;;4972050;28;20049;-69
2023/10/29 04:06:24;;;;;;;4.60;0.80;;;15.00;99.90;;;;;;4969928;28;20027;-71
2023/10/29 04:08:50;;;;;;;1.02;0.60;;;15.00;99.90;;;;;;4975784;28;20077;-70
2023/10/29 04:11:16;;;;;;;1.67;0.57;;;15.00;99.90;;;;;;4973574;28;20090;-70
2023/10/29 04:13:42;;;;;;;1.92;0.77;;;14.90;99.90;;;;;;4975260;28;20113;-70
2023/10/29 04:16:08;;;;;;;1.98;0.63;;;15.00;99.90;;;;;;4973804;28;20031;-71
2023/10/29 04:18:34;;;;;;;3.60;1.00;;;15.00;99.90;;;;;;4973771;28;20385;-71
2023/10/29 04:21:08;;;;;;;3.78;0.70;;;14.90;99.90;;;;;;4975889;28;20042;-70
2023/10/29 04:23:37;;;;;;;4.28;1.00;;;14.90;99.90;;;;;;4975586;28;20534;-71
2023/10/29 04:26:03;;;;;;;2.95;0.90;;;15.00;99.90;;;;;;4974634;28;20043;-71
2023/10/29 04:28:28;;;;;;;4.20;0.90;;;14.90;99.90;;;;;;4975473;28;20033;-71
2023/10/29 04:30:55;;;;;;;2.33;1.10;;;14.80;99.90;;;;;;4971154;28;20113;-71
2023/10/29 04:33:22;;;;;;;3.50;0.88;;;14.90;99.90;;;;;;4975779;28;20042;-71
2023/10/29 04:35:47;;;;;;;2.70;0.73;;;15.00;99.90;;;;;;4975699;28;20027;-71
2023/10/29 04:38:13;;;;;;;8.30;1.00;;;15.00;99.90;;;;;;4972570;28;20114;-71
2023/10/29 04:40:39;;;;;;;2.10;0.80;;;15.10;99.90;;;;;;4975114;28;20475;-72
2023/10/29 04:43:04;;;;;;;4.00;1.15;;;15.00;99.90;;;;;;4975554;28;20023;-72
2023/10/29 04:45:30;;;;;;;3.05;1.02;;;15.00;99.90;;;;;;4975399;28;20061;-71
2023/10/29 04:47:56;;;;;;;4.72;0.93;;;15.00;99.90;;;;;;4968718;28;20030;-72
2023/10/29 04:50:21;;;;;;;4.40;1.10;;;15.00;99.90;;;;;;4975317;28;20054;-71
2023/10/29 04:52:47;;;;;;;2.40;1.10;;;14.90;99.90;;;;;;4972991;28;20826;-73
2023/10/29 04:55:12;;;;;;;2.97;0.85;;;14.90;99.90;;;;;;4974440;28;20031;-71
2023/10/29 04:57:38;;;;;;;3.53;0.88;;;14.90;99.90;;;;;;4974760;28;20038;-72
2023/10/29 05:00:05;;;;;;;3.72;1.08;;;14.90;99.90;;;;;;4975718;28;20488;-70
2023/10/29 05:02:30;;;;;;;3.80;1.50;;;14.90;99.90;;;;;;4974916;28;20498;-71
2023/10/29 05:04:56;;;;;;;4.80;1.20;;;14.80;99.90;;;;;;4973740;28;20101;-70
2023/10/29 05:07:22;;;;;;;2.53;1.13;;;14.80;99.90;;;;;;4974559;28;20081;-71
2023/10/29 05:09:47;;;;;;;6.22;1.35;;;14.80;99.90;;;;;;4975875;28;20037;-71
2023/10/29 05:12:14;;;;;;;6.95;1.17;;;14.80;99.90;;;;;;4971762;28;20050;-70
2023/10/29 05:14:40;;;;;;;2.22;0.98;;;14.80;99.90;;;;;;4974652;28;20018;-72
2023/10/29 05:17:06;;;;;;;7.13;0.90;;;14.80;99.90;;;;;;4975128;28;20093;-71
2023/10/29 05:19:32;;;;;;;4.43;0.90;;;14.80;99.90;;;;;;4971519;28;20038;-72
2023/10/29 05:21:58;;;;;;;6.75;0.80;;;14.90;99.90;;;;;;4974663;28;20031;-71
2023/10/29 05:24:23;;;;;;;8.38;1.30;;;14.80;99.90;;;;;;4971658;28;20037;-70
2023/10/29 05:26:49;;;;;;;1.40;1.00;;;14.90;99.90;;;;;;4972846;28;20031;-70
2023/10/29 05:29:14;;;;;;;5.10;1.35;;;14.90;99.90;;;;;;4971566;28;20034;-70
2023/10/29 05:31:40;;;;;;;4.13;0.93;;;14.90;99.90;;;;;;4974283;28;20022;-70
2023/10/29 05:34:06;;;;;;;7.32;1.60;;;14.90;99.90;;;;;;4971296;28;20030;-69
2023/10/29 05:36:32;;;;;;;5.25;1.48;;;14.90;99.90;;;;;;4973227;28;20375;-70
2023/10/29 05:38:58;;;;;;;3.13;1.60;;;14.90;99.90;;;;;;4971625;28;20479;-70
2023/10/29 05:41:23;;;;;;;4.25;0.90;;;14.90;99.90;;;;;;4974267;28;20122;-70
2023/10/29 05:43:49;;;;;;;3.15;1.13;;;14.80;99.90;;;;;;4973945;28;20443;-70
2023/10/29 05:46:16;;;;;;;4.13;1.20;;;14.70;99.90;;;;;;4973606;28;20039;-70
2023/10/29 05:48:41;;;;;;;4.25;1.15;;;14.80;99.90;;;;;;4969456;28;20026;-71
2023/10/29 05:51:12;;;;;;;7.10;1.60;;;14.70;99.90;;;;;;4968664;28;20380;-70
2023/10/29 05:53:40;;;;;;;4.57;1.15;;;14.70;99.90;;;;;;4973212;28;20022;-70
2023/10/29 05:56:06;;;;;;;6.80;1.35;;;14.80;99.90;;;;;;4974250;28;20031;-70
2023/10/29 05:58:33;;;;;;;6.82;1.40;;;14.70;99.90;;;;;;4970878;28;20077;-70
2023/10/29 06:00:59;;;;;;;8.20;1.40;;;14.70;99.90;;;;;;4973209;28;20046;-69
2023/10/29 06:03:24;;;;;;;8.35;1.00;;;14.70;99.90;;;;;;4971261;28;20043;-70
2023/10/29 06:05:52;;;;;;;7.38;1.05;;;14.70;99.90;;;;;;4974047;28;20388;-72
2023/10/29 06:08:18;;;;;;;7.93;1.50;;;14.70;99.90;;;;;;4970525;28;20242;-69
2023/10/29 06:10:43;;;;;;;7.95;1.20;;;14.80;99.90;;;;;;4973505;28;20026;-69
2023/10/29 06:13:09;;;;;;;7.13;1.92;;;14.80;99.90;;;;;;4971495;28;20027;-70
2023/10/29 06:15:35;;;;;;;5.95;1.50;;;14.70;99.90;;;;;;4973326;28;20034;-70
2023/10/29 06:18:04;;;;;;;7.05;1.50;;;14.70;99.90;;;;;;4969957;28;20019;-70
2023/10/29 06:20:29;;;;;;;8.60;1.63;;;14.70;99.90;;;;;;4972968;28;20118;-70
2023/10/29 06:22:55;;;;;;;8.65;1.50;;;14.70;99.90;;;;;;4980986;28;20170;-69
2023/10/29 06:25:21;;;;;;;5.07;1.55;;;14.70;99.90;;;;;;4971942;28;20034;-71
2023/10/29 06:27:47;;;;;;;7.35;1.40;;;14.70;99.90;;;;;;4972175;28;20557;-70
2023/10/29 06:30:13;;;;;;;10.07;1.83;;;14.70;99.90;;;;;;4970664;28;20035;-69
2023/10/29 06:32:39;;;;;;;7.47;1.40;;;14.70;99.90;;;;;;4972725;28;20018;-69
2023/10/29 06:35:05;;;;;;;6.60;1.33;;;14.60;99.90;;;;;;4973149;28;20030;-71
2023/10/29 06:37:31;;;;;;;5.80;1.15;;;14.70;99.90;;;;;;4973027;28;20021;-70
2023/10/29 06:39:57;;;;;;;5.97;1.38;;;14.70;99.90;;;;;;4970216;28;20030;-71
2023/10/29 06:42:22;;;;;;;5.85;1.38;;;14.60;99.90;;;;;;4972731;28;20524;-70
2023/10/29 06:44:48;;;;;;;5.15;1.45;;;14.50;99.90;;;;;;4971015;28;20077;-72
2023/10/29 06:47:14;;;;;;;12.57;1.98;;;14.50;99.90;;;;;;4970601;28;20039;-72
2023/10/29 06:49:40;;;;;;;13.45;2.35;;;14.50;99.90;;;;;;4968658;28;20027;-72
2023/10/29 06:52:07;;;;;;;5.63;1.92;;;14.60;99.90;;;;;;4971600;28;20105;-72
2023/10/29 06:54:34;;;;;;;11.77;1.55;;;14.50;99.90;;;;;;4972827;28;20491;-72
2023/10/29 06:57:00;;;;;;;6.97;1.70;;;14.50;99.90;;;;;;4972077;28;20034;-74
2023/10/29 06:59:26;;;;;;;10.60;1.77;;;14.50;99.90;;;;;;4969538;28;20101;-73
2023/10/29 07:01:52;;;;;;;5.75;1.30;;;14.50;99.90;;;;;;4973045;28;20477;-72
2023/10/29 07:04:18;;;;;;;5.18;1.23;;;14.60;99.90;;;;;;4972650;28;20045;-69
2023/10/29 07:06:46;;;;;;;10.63;1.92;;;14.50;99.90;;;;;;4972211;28;20023;-70
2023/10/29 07:09:15;;;;;;;8.32;1.90;;;14.40;99.90;;;;;;4969988;28;20472;-72
2023/10/29 07:11:44;;;;;;;10.35;1.90;;;14.40;99.90;;;;;;4972312;28;20018;-70
2023/10/29 07:14:10;;;;;;;11.88;2.03;;;14.50;99.90;;;;;;4970138;28;20037;-70
2023/10/29 07:16:37;;;;;;;9.25;2.05;;;14.50;99.90;;;;;;4986137;28;20511;-69
2023/10/29 07:19:04;;;;;;;9.55;1.80;;;14.50;99.90;;;;;;4969273;28;20035;-70
2023/10/29 07:21:30;;;;;;;10.55;1.75;;;14.50;99.90;;;;;;4971909;28;20050;-72
2023/10/29 07:23:56;;;;;;;8.80;1.48;;;14.50;99.90;;;;;;4969834;28;20832;-72
2023/10/29 07:26:21;;;;;;;7.40;1.63;;;14.50;99.90;;;;;;4967925;28;20027;-71
2023/10/29 07:28:47;;;;;;;7.70;1.60;;;14.40;99.90;;;;;;4972080;28;20074;-72
2023/10/29 07:31:14;;;;;;;10.45;1.98;;;14.50;99.90;;;;;;4970154;28;20022;-72
2023/10/29 07:33:40;;;;;;;8.80;1.75;;;14.60;99.90;;;;;;4972379;28;20019;-76
2023/10/29 07:36:07;;;;;;;18.83;5.25;;;14.50;99.90;;;;;;4970238;28;20435;-73
2023/10/29 07:38:32;;;;;;;9.25;2.05;;;14.60;99.90;;;;;;4972465;28;20135;-72
2023/10/29 07:40:58;;;;;;;9.48;2.45;;;14.50;99.90;;;;;;4968708;28;20057;-72
2023/10/29 07:43:25;;;;;;;7.72;1.83;;;14.50;99.90;;;;;;4976957;28;20091;-73
2023/10/29 07:45:51;;;;;;;8.50;1.73;;;14.60;99.90;;;;;;4974760;28;20027;-72
2023/10/29 07:48:21;;;;;;;7.90;1.70;;;14.60;99.90;;;;;;4973536;28;20065;-74
2023/10/29 07:50:51;;;;;;;11.52;1.60;;;14.60;99.90;;;;;;4955189;28;20397;-73
2023/10/29 07:53:16;;;;;;;10.70;2.38;;;14.50;99.90;;;;;;4975543;28;20049;-74
2023/10/29 07:55:42;;;;;;;6.93;1.70;;;14.60;99.90;;;;;;4976103;28;20436;-74
2023/10/29 07:58:08;;;;;;;12.30;2.55;;;14.60;99.90;;;;;;4974235;28;20073;-73
2023/10/29 08:00:35;;;;;;;12.30;2.20;;;14.60;99.90;;;;;;4975729;28;20034;-71
2023/10/29 08:03:01;;;;;;;17.52;2.22;;;14.60;99.90;;;;;;4976087;28;20368;-74
2023/10/29 08:05:26;;;;;;;9.07;1.67;;;14.70;99.90;;;;;;4973283;28;20038;-71
2023/10/29 08:07:52;;;;;;;10.77;1.75;;;14.70;99.90;;;;;;4976298;28;20015;-71
2023/10/29 08:10:18;;;;;;;9.77;1.90;;;14.70;99.90;;;;;;4975760;28;20046;-73
2023/10/29 08:12:44;;;;;;;9.85;1.83;;;14.80;99.90;;;;;;4967767;28;20492;-73
2023/10/29 08:15:10;;;;;;;10.02;1.92;;;14.70;99.90;;;;;;4975941;28;20061;-72
2023/10/29 08:17:36;;;;;;;9.35;1.45;;;14.90;99.90;;;;;;4973899;28;20763;-72
2023/10/29 08:20:02;;;;;;;7.35;1.45;;;14.90;99.90;;;;;;4975399;28;20537;-71
2023/10/29 08:22:28;;;;;;;8.02;1.73;;;14.90;99.90;;;;;;4974913;28;20031;-73
2023/10/29 08:24:55;;;;;;;9.55;1.80;;;15.00;99.90;;;;;;4975232;28;20606;-73
2023/10/29 08:27:21;;;;;;;8.15;1.95;;;15.00;99.90;;;;;;4971979;28;20031;-72
2023/10/29 08:29:49;;;;;;;13.75;1.58;;;15.00;99.90;;;;;;4970576;28;20558;-71
2023/10/29 08:32:15;;;;;;;10.70;1.70;;;15.00;99.90;;;;;;4972466;28;20027;-72
2023/10/29 08:34:41;;;;;;;9.70;1.90;;;14.90;99.90;;;;;;4974763;28;20027;-73
2023/10/29 08:37:07;;;;;;;6.63;1.77;;;15.00;99.90;;;;;;4975110;28;20030;-71
2023/10/29 08:39:33;;;;;;;9.68;1.92;;;15.00;99.90;;;;;;4972626;28;20027;-73
2023/10/29 08:42:00;;;;;;;10.32;2.08;;;15.00;99.90;;;;;;4975774;28;20045;-73
2023/10/29 08:44:27;;;;;;;8.32;1.42;;;15.10;99.90;;;;;;4975706;28;20023;-73
2023/10/29 08:46:53;;;;;;;9.98;1.65;;;15.10;99.90;;;;;;4974978;28;20037;-74
2023/10/29 08:49:18;;;;;;;6.72;2.00;;;15.20;99.90;;;;;;4972572;28;20904;-75
2023/10/29 08:51:44;;;;;;;13.07;2.25;;;15.20;99.90;;;;;;4972471;28;20077;-73
2023/10/29 08:54:09;;;;;;;5.90;1.80;;;15.30;99.90;;;;;;4973373;28;20030;-72
2023/10/29 08:56:36;;;;;;;7.88;1.70;;;15.30;99.90;;;;;;4974200;28;20031;-73
2023/10/29 08:59:05;;;;;;;9.15;2.00;;;15.30;99.90;;;;;;4972428;28;20435;-72
2023/10/29 09:01:31;;;;;;;10.20;2.10;;;15.30;99.90;;;;;;4974164;28;20034;-73
2023/10/29 09:03:57;;;;;;;7.47;1.70;;;15.30;99.90;;;;;;4974986;28;20038;-73
2023/10/29 09:06:24;;;;;;;7.10;1.65;;;15.40;99.90;;;;;;4974961;28;20054;-72
2023/10/29 09:08:50;;;;;;;9.30;1.63;;;15.50;99.90;;;;;;4969273;28;20450;-73
2023/10/29 09:11:17;;;;;;;8.52;2.38;;;15.50;99.90;;;;;;4951916;28;20035;-71
2023/10/29 09:13:43;;;;;;;6.88;2.13;;;15.40;99.90;;;;;;4966933;28;20031;-73
2023/10/29 09:16:09;;;;;;;9.35;2.00;;;15.50;99.90;;;;;;4967804;28;20499;-73
2023/10/29 09:18:36;;;;;;;7.65;1.88;;;15.50;99.90;;;;;;4967827;28;20027;-73
2023/10/29 09:21:02;;;;;;;7.55;2.40;;;15.50;99.90;;;;;;4965772;28;20507;-72
2023/10/29 09:23:39;;;;;;;7.55;1.60;;;15.50;99.90;;;;;;4965562;28;20116;-76
2023/10/29 09:26:05;;;;;;;8.75;1.52;;;15.60;99.90;;;;;;4965360;28;20027;-74
2023/10/29 09:28:30;;;;;;;9.35;1.73;;;15.80;99.90;;;;;;4969181;28;20431;-72
2023/10/29 09:30:56;;;;;;;9.88;2.05;;;15.80;99.90;;;;;;4963315;28;20096;-74
2023/10/29 09:33:22;;;;;;;8.85;2.50;;;16.00;99.90;;;;;;4967163;28;20590;-72
2023/10/29 09:35:47;;;;;;;7.28;1.92;;;16.00;99.90;;;;;;4967738;28;20483;-72
2023/10/29 09:38:14;;;;;;;8.73;1.70;;;16.10;99.90;;;;;;4967428;28;20031;-73
2023/10/29 09:40:40;;;;;;;9.38;1.75;;;16.20;99.90;;;;;;4964420;28;20081;-72
2023/10/29 09:43:09;;;;;;;13.10;1.50;;;16.30;99.90;;;;;;4966965;28;20026;-74
2023/10/29 09:45:45;;;;;;;7.18;1.80;;;16.40;99.90;;;;;;4965788;28;20042;-72
2023/10/29 09:48:14;;;;;;;8.60;1.90;;;16.50;99.90;;;;;;4968070;28;20081;-73
2023/10/29 09:50:42;;;;;;;11.70;1.58;;;16.50;99.90;;;;;;4967791;28;20023;-72
2023/10/29 09:53:11;;;;;;;7.93;1.75;;;16.50;99.90;;;;;;4965583;28;20186;-73
2023/10/29 09:55:38;;;;;;;11.82;1.85;;;16.50;99.90;;;;;;4967072;28;20027;-74
2023/10/29 09:58:04;;;;;;;10.30;2.00;;;16.60;99.90;;;;;;4966800;28;20037;-76
2023/10/29 10:00:32;;;;;;;11.00;1.90;;;16.50;99.90;;;;;;4965243;28;20070;-72
2023/10/29 10:02:58;;;;;;;10.88;2.15;;;16.50;99.90;;;;;;4965015;28;20443;-76
2023/10/29 10:05:28;;;;;;;6.88;1.88;;;16.30;99.90;;;;;;4981370;28;20031;-73
2023/10/29 10:07:55;;;;;;;11.48;2.25;;;16.40;99.90;;;;;;4965911;28;20117;-72
2023/10/29 10:10:21;;;;;;;9.43;1.63;;;16.30;99.90;;;;;;4979968;28;20022;-73
2023/10/29 10:12:49;;;;;;;8.70;1.70;;;16.30;99.90;;;;;;4967800;28;20039;-73
2023/10/29 10:15:19;;;;;;;8.38;1.90;;;16.10;99.90;;;;;;4967094;28;20018;-74
2023/10/29 10:17:56;;;;;;;11.32;2.25;;;16.20;99.90;;;;;;4965118;28;20491;-75
2023/10/29 10:20:22;;;;;;;10.30;2.10;;;16.20;99.90;;;;;;4966905;28;20046;-70
2023/10/29 10:23:05;;;;;;;8.70;1.58;;;16.10;99.90;;;;;;4966676;28;20031;-72
2023/10/29 10:25:32;;;;;;;14.73;1.80;;;16.10;99.90;;;;;;4966509;28;20644;-72
2023/10/29 10:27:59;;;;;;;8.25;2.20;;;16.20;99.90;;;;;;4967215;28;20063;-73
2023/10/29 10:30:38;;;;;;;7.30;2.40;;;16.20;99.90;;;;;;4966466;28;20064;-74
2023/10/29 10:33:12;;;;;;;10.80;1.83;;;16.20;99.90;;;;;;4966813;28;20475;-69
2023/10/29 10:35:52;;;;;;;7.10;2.10;;;16.10;99.90;;;;;;4967180;28;20022;-71
2023/10/29 10:38:19;;;;;;;5.95;1.98;;;16.20;99.90;;;;;;4967019;28;20050;-71
2023/10/29 10:40:46;;;;;;;7.22;1.73;;;16.10;99.90;;;;;;4965814;28;20078;-73
2023/10/29 10:43:18;;;;;;;10.57;2.03;;;16.10;99.90;;;;;;4965885;28;20030;-71
2023/10/29 10:45:49;;;;;;;8.05;1.92;;;16.20;99.90;;;;;;4964460;28;20518;-71
2023/10/29 10:48:16;;;;;;;11.95;1.80;;;16.10;99.90;;;;;;4966638;28;20023;-71
2023/10/29 10:50:43;;;;;;;8.88;1.70;;;16.10;99.90;;;;;;4963653;28;20039;-73
2023/10/29 10:53:09;;;;;;;12.02;2.00;;;16.10;99.90;;;;;;4964294;28;20579;-71
2023/10/29 10:55:36;;;;;;;12.90;1.95;;;16.10;99.90;;;;;;4966594;28;20023;-73
2023/10/29 10:58:03;;;;;;;10.07;1.80;;;16.10;99.90;;;;;;4966450;28;20106;-71
2023/10/29 11:00:32;;;;;;;7.38;1.58;;;16.10;99.90;;;;;;4965110;28;20031;-73
2023/10/29 11:02:59;;;;;;;8.95;1.60;;;16.00;99.90;;;;;;4964140;28;20026;-72
2023/10/29 11:05:30;;;;;;;12.45;2.13;;;16.00;99.90;;;;;;4964406;28;20097;-74
2023/10/29 11:07:57;;;;;;;10.07;1.77;;;15.90;99.90;;;;;;4964975;28;20035;-72
2023/10/29 11:10:25;;;;;;;5.03;1.35;;;15.90;99.90;;;;;;4965066;28;20027;-73
2023/10/29 11:12:51;;;;;;;9.80;1.63;;;15.90;99.90;;;;;;4963616;28;20027;-74
2023/10/29 11:15:22;;;;;;;9.23;2.08;;;15.80;99.90;;;;;;4966642;28;20093;-71
2023/10/29 11:17:51;;;;;;;6.13;1.60;;;15.80;99.90;;;;;;4962864;28;20034;-72
2023/10/29 11:20:38;;;;;;;11.68;2.25;;;15.80;99.90;;;;;;4965224;28;20539;-72
2023/10/29 11:23:15;;;;;;;9.13;2.22;;;15.60;99.90;;;;;;4962715;28;20034;-72
2023/10/29 11:25:41;;;;;;;8.18;1.73;;;15.60;99.90;;;;;;4962648;28;20074;-72
2023/10/29 11:28:33;;;;;;;9.60;1.83;;;15.60;99.90;;;;;;4966271;28;20030;-72
2023/10/29 11:31:16;;;;;;;9.57;1.70;;;15.60;99.90;;;;;;4960137;28;20395;-73
2023/10/29 11:34:05;;;;;;;;;;;15.70;99.90;;;;;;4966740;28;20027;-73
2023/10/29 11:36:34;;;;;;;10.38;2.05;;;15.70;99.90;;;;;;4942108;28;19910;-71
2023/10/29 11:39:28;;;;;;;8.32;1.73;;;15.70;99.90;;;;;;4963973;28;20058;-73
2023/10/29 11:41:55;;;;;;;11.65;1.73;;;15.60;99.90;;;;;;4965010;28;20066;-73
2023/10/29 11:44:27;;;;;;;5.25;1.27;;;15.80;99.90;;;;;;4966779;28;20097;-73
2023/10/29 11:46:58;;;;;;;11.55;2.17;;;15.70;99.90;;;;;;4965439;28;20109;-73
2023/10/29 11:49:28;;;;;;;8.63;1.88;;;15.70;99.90;;;;;;4965744;28;20039;-74
2023/10/29 11:51:56;;;;;;;7.20;1.90;;;15.80;99.90;;;;;;4964568;28;20027;-72
2023/10/29 11:54:22;;;;;;;7.45;1.45;;;15.90;99.90;;;;;;4965350;28;20023;-71
2023/10/29 11:56:49;;;;;;;9.43;2.40;;;16.10;99.90;;;;;;4961744;28;20038;-74
2023/10/29 11:59:15;;;;;;;8.20;1.95;;;16.20;99.90;;;;;;4964655;28;20027;-72
2023/10/29 12:01:44;;;;;;;10.73;2.03;;;16.20;99.90;;;;;;4958468;28;20054;-75
2023/10/29 12:04:11;;;;;;;6.75;1.90;;;16.10;99.90;;;;;;4964689;28;20483;-73
2023/10/29 12:06:39;;;;;;;7.85;2.00;;;16.10;99.90;;;;;;4964174;28;20081;-73
2023/10/29 12:09:14;;;;;;;9.57;2.13;;;16.00;99.90;;;;;;4962888;28;20068;-73
2023/10/29 12:11:40;;;;;;;5.90;1.40;;;16.00;99.90;;;;;;4962438;28;20019;-71
2023/10/29 12:14:06;;;;;;;7.57;1.50;;;16.00;99.90;;;;;;4965964;28;20066;-72
2023/10/29 12:16:32;;;;;;;7.50;1.48;;;16.00;99.90;;;;;;4964896;28;20050;-72
2023/10/29 12:18:58;;;;;;;6.07;1.60;;;15.90;99.90;;;;;;4965169;28;20439;-70
2023/10/29 12:21:24;;;;;;;10.07;1.83;;;16.10;99.90;;;;;;4961712;28;20043;-71
2023/10/29 12:23:50;;;;;;;6.68;2.22;;;16.00;99.90;;;;;;4964730;28;20050;-71
2023/10/29 12:26:16;;;;;;;6.18;1.50;;;16.10;99.90;;;;;;4965819;28;20380;-74
2023/10/29 12:28:42;;;;;;;8.48;1.40;;;16.10;99.90;;;;;;4967916;28;20070;-72
2023/10/29 12:31:26;;;;;;;7.55;2.00;;;16.20;99.90;;;;;;4963658;28;20031;-72
2023/10/29 12:33:59;;;;;;;10.90;2.15;;;16.20;99.90;;;;;;4968579;28;20678;-73
2023/10/29 12:36:25;;;;;;;5.45;1.73;;;16.30;99.90;;;;;;4965375;28;20488;-72
2023/10/29 12:38:52;;;;;;;5.88;1.60;;;16.40;99.90;;;;;;4963563;28;20041;-73
2023/10/29 12:41:21;;;;;;;11.25;1.90;;;16.20;99.90;;;;;;4966738;28;20562;-71
2023/10/29 12:43:54;;;;;;;7.68;1.70;;;16.10;99.90;;;;;;4967921;28;20037;-72